sensor_id;sensor_type;location;lat;lon;timestamp;P1;durP1;ratioP1;P2;durP2;ratioP2
26780;SDS011;14366;49.184;8.054;2024-02-28T00:05:23;18.90;;;13.30;;
26780;SDS011;14366;49.184;8.054;2024-02-28T00:10:58;18.80;;;13.67;;
26780;SDS011;14366;49.184;8.054;2024-02-28T00:16:20;16.17;;;13.13;;
26780;SDS011;14366;49.184;8.054;2024-02-28T00:21:55;19.25;;;14.75;;
26780;SDS011;14366;49.184;8.054;2024-02-28T00:27:16;19.17;;;14.40;;
26780;SDS011;14366;49.184;8.054;2024-02-28T00:32:50;19.15;;;14.55;;
26780;SDS011;14366;49.184;8.054;2024-02-28T00:38:21;18.70;;;14.60;;
26780;SDS011;14366;49.184;8.054;2024-02-28T00:43:39;24.70;;;15.20;;
26780;SDS011;14366;49.184;8.054;2024-02-28T00:48:59;18.07;;;14.23;;
26780;SDS011;14366;49.184;8.054;2024-02-28T00:59:34;21.10;;;15.10;;
26780;SDS011;14366;49.184;8.054;2024-02-28T01:10:01;20.30;;;15.77;;
26780;SDS011;14366;49.184;8.054;2024-02-28T01:20:36;19.80;;;15.10;;
26780;SDS011;14366;49.184;8.054;2024-02-28T01:26:13;21.30;;;15.50;;
26780;SDS011;14366;49.184;8.054;2024-02-28T01:31:45;18.95;;;15.40;;
26780;SDS011;14366;49.184;8.054;2024-02-28T01:37:20;21.50;;;15.80;;
26780;SDS011;14366;49.184;8.054;2024-02-28T01:43:03;20.45;;;15.30;;
26780;SDS011;14366;49.184;8.054;2024-02-28T01:48:37;22.05;;;15.65;;
26780;SDS011;14366;49.184;8.054;2024-02-28T01:54:09;22.30;;;16.37;;
26780;SDS011;14366;49.184;8.054;2024-02-28T01:59:43;22.33;;;16.12;;
26780;SDS011;14366;49.184;8.054;2024-02-28T02:05:14;24.05;;;18.00;;
26780;SDS011;14366;49.184;8.054;2024-02-28T02:10:32;23.37;;;16.83;;
26780;SDS011;14366;49.184;8.054;2024-02-28T02:15:55;20.65;;;16.00;;
26780;SDS011;14366;49.184;8.054;2024-02-28T02:21:30;23.53;;;17.03;;
26780;SDS011;14366;49.184;8.054;2024-02-28T02:27:04;22.80;;;16.65;;
26780;SDS011;14366;49.184;8.054;2024-02-28T02:32:35;23.85;;;16.85;;
26780;SDS011;14366;49.184;8.054;2024-02-28T02:38:10;25.80;;;16.80;;
26780;SDS011;14366;49.184;8.054;2024-02-28T02:43:47;22.60;;;16.33;;
26780;SDS011;14366;49.184;8.054;2024-02-28T02:49:22;24.63;;;18.00;;
26780;SDS011;14366;49.184;8.054;2024-02-28T02:54:43;26.13;;;18.33;;
26780;SDS011;14366;49.184;8.054;2024-02-28T03:06:19;23.20;;;17.60;;
26780;SDS011;14366;49.184;8.054;2024-02-28T03:16:58;25.45;;;18.15;;
26780;SDS011;14366;49.184;8.054;2024-02-28T03:27:24;25.10;;;18.30;;
26780;SDS011;14366;49.184;8.054;2024-02-28T03:32:59;26.90;;;18.57;;
26780;SDS011;14366;49.184;8.054;2024-02-28T03:38:34;24.95;;;18.50;;
26780;SDS011;14366;49.184;8.054;2024-02-28T03:44:07;24.90;;;17.10;;
26780;SDS011;14366;49.184;8.054;2024-02-28T03:49:42;23.90;;;16.97;;
26780;SDS011;14366;49.184;8.054;2024-02-28T04:00:23;24.57;;;17.53;;
26780;SDS011;14366;49.184;8.054;2024-02-28T04:11:03;24.00;;;18.40;;
26780;SDS011;14366;49.184;8.054;2024-02-28T04:16:42;28.50;;;18.60;;
26780;SDS011;14366;49.184;8.054;2024-02-28T04:22:17;25.37;;;18.00;;
26780;SDS011;14366;49.184;8.054;2024-02-28T04:27:37;23.60;;;16.95;;
26780;SDS011;14366;49.184;8.054;2024-02-28T04:33:13;23.53;;;17.37;;
26780;SDS011;14366;49.184;8.054;2024-02-28T04:38:48;23.77;;;17.20;;
26780;SDS011;14366;49.184;8.054;2024-02-28T04:44:23;20.55;;;15.45;;
26780;SDS011;14366;49.184;8.054;2024-02-28T04:54:49;25.40;;;18.00;;
26780;SDS011;14366;49.184;8.054;2024-02-28T05:00:24;25.20;;;17.00;;
26780;SDS011;14366;49.184;8.054;2024-02-28T05:05:56;27.93;;;18.93;;
26780;SDS011;14366;49.184;8.054;2024-02-28T05:11:18;25.33;;;18.17;;
26780;SDS011;14366;49.184;8.054;2024-02-28T05:16:53;26.00;;;19.30;;
26780;SDS011;14366;49.184;8.054;2024-02-28T05:22:12;26.43;;;18.17;;
26780;SDS011;14366;49.184;8.054;2024-02-28T05:27:33;25.87;;;18.17;;
26780;SDS011;14366;49.184;8.054;2024-02-28T05:33:05;28.60;;;19.10;;
26780;SDS011;14366;49.184;8.054;2024-02-28T05:38:25;27.03;;;17.07;;
26780;SDS011;14366;49.184;8.054;2024-02-28T05:43:43;26.00;;;17.60;;
26780;SDS011;14366;49.184;8.054;2024-02-28T05:49:14;26.33;;;17.00;;
26780;SDS011;14366;49.184;8.054;2024-02-28T05:54:35;24.35;;;16.45;;
26780;SDS011;14366;49.184;8.054;2024-02-28T06:05:15;27.07;;;18.00;;
26780;SDS011;14366;49.184;8.054;2024-02-28T06:15:49;26.63;;;17.13;;
26780;SDS011;14366;49.184;8.054;2024-02-28T06:26:15;23.20;;;15.75;;
26780;SDS011;14366;49.184;8.054;2024-02-28T06:31:50;24.27;;;16.53;;
26780;SDS011;14366;49.184;8.054;2024-02-28T06:37:24;29.20;;;17.50;;
26780;SDS011;14366;49.184;8.054;2024-02-28T06:42:46;23.10;;;15.20;;
26780;SDS011;14366;49.184;8.054;2024-02-28T06:48:21;24.13;;;15.97;;
26780;SDS011;14366;49.184;8.054;2024-02-28T06:53:53;26.07;;;17.30;;
26780;SDS011;14366;49.184;8.054;2024-02-28T06:59:14;27.10;;;16.80;;
26780;SDS011;14366;49.184;8.054;2024-02-28T07:04:49;26.60;;;16.70;;
26780;SDS011;14366;49.184;8.054;2024-02-28T07:15:27;26.20;;;17.70;;
26780;SDS011;14366;49.184;8.054;2024-02-28T07:26:05;26.20;;;17.00;;
26780;SDS011;14366;49.184;8.054;2024-02-28T07:31:28;26.13;;;17.53;;
26780;SDS011;14366;49.184;8.054;2024-02-28T07:37:02;26.70;;;16.90;;
26780;SDS011;14366;49.184;8.054;2024-02-28T07:47:40;25.73;;;17.13;;
26780;SDS011;14366;49.184;8.054;2024-02-28T07:58:18;27.43;;;17.67;;
26780;SDS011;14366;49.184;8.054;2024-02-28T08:08:56;26.10;;;18.10;;
26780;SDS011;14366;49.184;8.054;2024-02-28T08:14:30;28.10;;;18.27;;
26780;SDS011;14366;49.184;8.054;2024-02-28T08:20:06;30.63;;;19.27;;
26780;SDS011;14366;49.184;8.054;2024-02-28T08:25:43;26.77;;;18.80;;
26780;SDS011;14366;49.184;8.054;2024-02-28T08:31:15;26.17;;;18.33;;
26780;SDS011;14366;49.184;8.054;2024-02-28T08:36:50;27.70;;;18.85;;
26780;SDS011;14366;49.184;8.054;2024-02-28T08:47:28;27.27;;;18.23;;
26780;SDS011;14366;49.184;8.054;2024-02-28T08:53:02;33.37;;;19.83;;
26780;SDS011;14366;49.184;8.054;2024-02-28T08:58:37;29.13;;;19.10;;
26780;SDS011;14366;49.184;8.054;2024-02-28T09:09:15;29.45;;;20.80;;
26780;SDS011;14366;49.184;8.054;2024-02-28T09:19:49;28.85;;;19.10;;
26780;SDS011;14366;49.184;8.054;2024-02-28T09:25:25;30.80;;;19.90;;
26780;SDS011;14366;49.184;8.054;2024-02-28T09:30:57;26.70;;;18.60;;
26780;SDS011;14366;49.184;8.054;2024-02-28T09:36:17;28.40;;;19.10;;
26780;SDS011;14366;49.184;8.054;2024-02-28T09:41:38;29.53;;;20.73;;
26780;SDS011;14366;49.184;8.054;2024-02-28T09:47:13;31.47;;;20.60;;
26780;SDS011;14366;49.184;8.054;2024-02-28T09:52:48;26.83;;;17.80;;
26780;SDS011;14366;49.184;8.054;2024-02-28T09:58:24;28.33;;;18.23;;
26780;SDS011;14366;49.184;8.054;2024-02-28T10:03:59;25.90;;;17.87;;
26780;SDS011;14366;49.184;8.054;2024-02-28T10:09:34;24.80;;;17.95;;
26780;SDS011;14366;49.184;8.054;2024-02-28T10:14:56;28.47;;;19.53;;
26780;SDS011;14366;49.184;8.054;2024-02-28T10:20:31;27.40;;;19.20;;
26780;SDS011;14366;49.184;8.054;2024-02-28T10:26:08;26.90;;;17.90;;
26780;SDS011;14366;49.184;8.054;2024-02-28T10:31:42;29.67;;;21.60;;
26780;SDS011;14366;49.184;8.054;2024-02-28T10:37:15;24.10;;;17.50;;
26780;SDS011;14366;49.184;8.054;2024-02-28T10:42:47;25.90;;;18.27;;
26780;SDS011;14366;49.184;8.054;2024-02-28T10:48:23;25.73;;;18.07;;
26780;SDS011;14366;49.184;8.054;2024-02-28T10:54:02;26.60;;;18.43;;
26780;SDS011;14366;49.184;8.054;2024-02-28T11:04:36;23.10;;;17.45;;
26780;SDS011;14366;49.184;8.054;2024-02-28T11:10:11;23.70;;;16.57;;
26780;SDS011;14366;49.184;8.054;2024-02-28T11:15:46;21.47;;;16.30;;
26780;SDS011;14366;49.184;8.054;2024-02-28T11:21:16;23.10;;;17.10;;
26780;SDS011;14366;49.184;8.054;2024-02-28T11:26:51;24.13;;;16.83;;
26780;SDS011;14366;49.184;8.054;2024-02-28T11:32:26;23.40;;;16.00;;
26780;SDS011;14366;49.184;8.054;2024-02-28T11:42:52;21.95;;;15.75;;
26780;SDS011;14366;49.184;8.054;2024-02-28T11:48:27;21.87;;;14.13;;
26780;SDS011;14366;49.184;8.054;2024-02-28T11:58:51;19.85;;;13.70;;
26780;SDS011;14366;49.184;8.054;2024-02-28T12:04:38;17.87;;;13.47;;
26780;SDS011;14366;49.184;8.054;2024-02-28T12:10:13;16.50;;;11.90;;
26780;SDS011;14366;49.184;8.054;2024-02-28T12:20:50;14.37;;;10.93;;
26780;SDS011;14366;49.184;8.054;2024-02-28T12:26:24;15.70;;;11.45;;
26780;SDS011;14366;49.184;8.054;2024-02-28T12:31:42;14.50;;;10.60;;
26780;SDS011;14366;49.184;8.054;2024-02-28T12:37:15;12.67;;;9.80;;
26780;SDS011;14366;49.184;8.054;2024-02-28T12:42:48;11.63;;;8.93;;
26780;SDS011;14366;49.184;8.054;2024-02-28T12:53:11;13.72;;;10.32;;
26780;SDS011;14366;49.184;8.054;2024-02-28T13:03:47;11.83;;;9.53;;
26780;SDS011;14366;49.184;8.054;2024-02-28T13:09:09;11.77;;;9.57;;
26780;SDS011;14366;49.184;8.054;2024-02-28T13:19:48;15.70;;;10.16;;
26780;SDS011;14366;49.184;8.054;2024-02-28T13:30:28;13.60;;;9.85;;
26780;SDS011;14366;49.184;8.054;2024-02-28T13:41:04;11.80;;;9.60;;
26780;SDS011;14366;49.184;8.054;2024-02-28T13:46:41;14.65;;;10.10;;
26780;SDS011;14366;49.184;8.054;2024-02-28T13:52:15;11.73;;;9.70;;
26780;SDS011;14366;49.184;8.054;2024-02-28T13:57:47;11.38;;;8.48;;
26780;SDS011;14366;49.184;8.054;2024-02-28T14:08:25;10.67;;;8.33;;
26780;SDS011;14366;49.184;8.054;2024-02-28T14:18:58;13.93;;;9.43;;
26780;SDS011;14366;49.184;8.054;2024-02-28T14:24:35;13.60;;;9.40;;
26780;SDS011;14366;49.184;8.054;2024-02-28T14:30:07;13.77;;;7.63;;
26780;SDS011;14366;49.184;8.054;2024-02-28T14:35:39;8.20;;;6.40;;
26780;SDS011;14366;49.184;8.054;2024-02-28T14:41:01;12.80;;;8.25;;
26780;SDS011;14366;49.184;8.054;2024-02-28T14:51:36;7.50;;;6.70;;
26780;SDS011;14366;49.184;8.054;2024-02-28T14:57:13;8.80;;;6.50;;
26780;SDS011;14366;49.184;8.054;2024-02-28T15:02:44;9.60;;;7.53;;
26780;SDS011;14366;49.184;8.054;2024-02-28T15:08:16;6.13;;;5.23;;
26780;SDS011;14366;49.184;8.054;2024-02-28T15:13:35;7.00;;;4.97;;
26780;SDS011;14366;49.184;8.054;2024-02-28T15:19:09;9.63;;;6.82;;
26780;SDS011;14366;49.184;8.054;2024-02-28T15:24:44;6.70;;;5.30;;
26780;SDS011;14366;49.184;8.054;2024-02-28T15:30:22;11.23;;;7.67;;
26780;SDS011;14366;49.184;8.054;2024-02-28T15:35:56;11.90;;;7.50;;
26780;SDS011;14366;49.184;8.054;2024-02-28T15:41:17;10.57;;;6.20;;
26780;SDS011;14366;49.184;8.054;2024-02-28T15:46:55;11.13;;;7.40;;
26780;SDS011;14366;49.184;8.054;2024-02-28T15:52:27;7.70;;;6.10;;
26780;SDS011;14366;49.184;8.054;2024-02-28T15:58:03;8.73;;;6.77;;
26780;SDS011;14366;49.184;8.054;2024-02-28T16:03:25;13.27;;;6.63;;
26780;SDS011;14366;49.184;8.054;2024-02-28T16:09:01;8.35;;;6.60;;
26780;SDS011;14366;49.184;8.054;2024-02-28T16:14:22;12.50;;;8.30;;
26780;SDS011;14366;49.184;8.054;2024-02-28T16:24:44;12.00;;;8.90;;
26780;SDS011;14366;49.184;8.054;2024-02-28T16:35:22;11.97;;;9.07;;
26780;SDS011;14366;49.184;8.054;2024-02-28T16:45:45;10.50;;;8.10;;
26780;SDS011;14366;49.184;8.054;2024-02-28T16:56:24;10.35;;;7.80;;
26780;SDS011;14366;49.184;8.054;2024-02-28T17:01:45;13.27;;;8.20;;
26780;SDS011;14366;49.184;8.054;2024-02-28T17:07:21;10.77;;;8.20;;
26780;SDS011;14366;49.184;8.054;2024-02-28T17:12:41;10.30;;;7.95;;
26780;SDS011;14366;49.184;8.054;2024-02-28T17:18:02;10.27;;;7.87;;
26780;SDS011;14366;49.184;8.054;2024-02-28T17:23:38;9.90;;;7.70;;
26780;SDS011;14366;49.184;8.054;2024-02-28T17:29:14;9.95;;;7.35;;
26780;SDS011;14366;49.184;8.054;2024-02-28T17:39:39;9.23;;;7.17;;
26780;SDS011;14366;49.184;8.054;2024-02-28T17:45:15;10.77;;;7.43;;
26780;SDS011;14366;49.184;8.054;2024-02-28T17:50:33;11.17;;;7.83;;
26780;SDS011;14366;49.184;8.054;2024-02-28T17:56:06;13.50;;;8.60;;
26780;SDS011;14366;49.184;8.054;2024-02-28T18:01:41;12.13;;;9.40;;
26780;SDS011;14366;49.184;8.054;2024-02-28T18:07:01;12.20;;;8.80;;
26780;SDS011;14366;49.184;8.054;2024-02-28T18:17:41;11.97;;;8.23;;
26780;SDS011;14366;49.184;8.054;2024-02-28T18:23:16;10.20;;;7.23;;
26780;SDS011;14366;49.184;8.054;2024-02-28T18:28:51;9.93;;;7.10;;
26780;SDS011;14366;49.184;8.054;2024-02-28T18:34:13;9.40;;;7.00;;
26780;SDS011;14366;49.184;8.054;2024-02-28T18:39:48;9.85;;;7.20;;
26780;SDS011;14366;49.184;8.054;2024-02-28T18:45:08;9.50;;;7.37;;
26780;SDS011;14366;49.184;8.054;2024-02-28T18:50:41;10.50;;;7.70;;
26780;SDS011;14366;49.184;8.054;2024-02-28T18:56:17;10.20;;;7.25;;
26780;SDS011;14366;49.184;8.054;2024-02-28T19:01:35;10.80;;;7.57;;
26780;SDS011;14366;49.184;8.054;2024-02-28T19:07:08;12.27;;;8.57;;
26780;SDS011;14366;49.184;8.054;2024-02-28T19:12:43;15.57;;;11.03;;
26780;SDS011;14366;49.184;8.054;2024-02-28T19:18:18;15.40;;;10.30;;
26780;SDS011;14366;49.184;8.054;2024-02-28T19:23:40;12.90;;;9.83;;
26780;SDS011;14366;49.184;8.054;2024-02-28T19:29:15;15.20;;;10.05;;
26780;SDS011;14366;49.184;8.054;2024-02-28T19:34:50;16.90;;;10.30;;
26780;SDS011;14366;49.184;8.054;2024-02-28T19:40:26;16.50;;;10.17;;
26780;SDS011;14366;49.184;8.054;2024-02-28T19:46:02;12.30;;;8.95;;
26780;SDS011;14366;49.184;8.054;2024-02-28T19:51:36;14.60;;;9.97;;
26780;SDS011;14366;49.184;8.054;2024-02-28T19:57:12;12.20;;;9.30;;
26780;SDS011;14366;49.184;8.054;2024-02-28T20:02:47;11.20;;;8.40;;
26780;SDS011;14366;49.184;8.054;2024-02-28T20:08:07;12.27;;;7.90;;
26780;SDS011;14366;49.184;8.054;2024-02-28T20:13:43;12.00;;;7.83;;
26780;SDS011;14366;49.184;8.054;2024-02-28T20:19:18;9.10;;;7.17;;
26780;SDS011;14366;49.184;8.054;2024-02-28T20:24:38;8.90;;;6.83;;
26780;SDS011;14366;49.184;8.054;2024-02-28T20:29:59;10.40;;;7.20;;
26780;SDS011;14366;49.184;8.054;2024-02-28T20:40:54;14.20;;;8.35;;
26780;SDS011;14366;49.184;8.054;2024-02-28T20:46:17;10.07;;;7.70;;
26780;SDS011;14366;49.184;8.054;2024-02-28T20:51:49;8.37;;;6.77;;
26780;SDS011;14366;49.184;8.054;2024-02-28T20:57:10;8.10;;;6.50;;
26780;SDS011;14366;49.184;8.054;2024-02-28T21:02:33;9.60;;;6.65;;
26780;SDS011;14366;49.184;8.054;2024-02-28T21:08:04;9.32;;;6.82;;
26780;SDS011;14366;49.184;8.054;2024-02-28T21:13:25;10.63;;;7.63;;
26780;SDS011;14366;49.184;8.054;2024-02-28T21:18:47;10.10;;;7.20;;
26780;SDS011;14366;49.184;8.054;2024-02-28T21:24:21;10.43;;;6.63;;
26780;SDS011;14366;49.184;8.054;2024-02-28T21:29:56;9.40;;;6.85;;
26780;SDS011;14366;49.184;8.054;2024-02-28T21:35:33;10.25;;;7.10;;
26780;SDS011;14366;49.184;8.054;2024-02-28T21:41:07;11.30;;;8.00;;
26780;SDS011;14366;49.184;8.054;2024-02-28T21:46:42;8.95;;;7.50;;
26780;SDS011;14366;49.184;8.054;2024-02-28T21:52:19;11.30;;;8.05;;
26780;SDS011;14366;49.184;8.054;2024-02-28T21:57:53;10.40;;;6.90;;
26780;SDS011;14366;49.184;8.054;2024-02-28T22:03:28;9.53;;;6.70;;
26780;SDS011;14366;49.184;8.054;2024-02-28T22:09:05;11.00;;;7.30;;
26780;SDS011;14366;49.184;8.054;2024-02-28T22:14:39;9.60;;;7.20;;
26780;SDS011;14366;49.184;8.054;2024-02-28T22:20:15;10.40;;;6.90;;
26780;SDS011;14366;49.184;8.054;2024-02-28T22:25:51;10.27;;;7.47;;
26780;SDS011;14366;49.184;8.054;2024-02-28T22:31:25;11.65;;;7.60;;
26780;SDS011;14366;49.184;8.054;2024-02-28T22:36:46;12.87;;;7.60;;
26780;SDS011;14366;49.184;8.054;2024-02-28T22:42:09;11.57;;;8.20;;
26780;SDS011;14366;49.184;8.054;2024-02-28T22:47:44;12.23;;;7.87;;
26780;SDS011;14366;49.184;8.054;2024-02-28T22:53:19;11.50;;;7.97;;
26780;SDS011;14366;49.184;8.054;2024-02-28T22:58:40;10.57;;;8.03;;
26780;SDS011;14366;49.184;8.054;2024-02-28T23:04:15;10.80;;;7.67;;
26780;SDS011;14366;49.184;8.054;2024-02-28T23:09:50;10.60;;;7.40;;
26780;SDS011;14366;49.184;8.054;2024-02-28T23:20:21;12.70;;;7.65;;
26780;SDS011;14366;49.184;8.054;2024-02-28T23:25:46;12.17;;;8.17;;
26780;SDS011;14366;49.184;8.054;2024-02-28T23:31:06;10.40;;;7.35;;
26780;SDS011;14366;49.184;8.054;2024-02-28T23:36:27;16.23;;;8.37;;
26780;SDS011;14366;49.184;8.054;2024-02-28T23:42:02;10.13;;;7.80;;
26780;SDS011;14366;49.184;8.054;2024-02-28T23:47:35;12.30;;;8.10;;
26780;SDS011;14366;49.184;8.054;2024-02-28T23:52:57;11.67;;;7.17;;
26780;SDS011;14366;49.184;8.054;2024-02-28T23:58:32;9.80;;;7.25;;
